createdAt,value
2019-04-14T00:00:42.553Z,40.35
2019-04-14T00:03:15.787Z,42.17
2019-04-14T00:05:45.102Z,42.38
2019-04-14T00:08:13.698Z,41.45
2019-04-14T00:10:42.245Z,42.35
2019-04-14T00:13:11.001Z,47.53
2019-04-14T00:15:44.820Z,43.13
2019-04-14T00:18:09.732Z,48.95
2019-04-14T00:20:38.254Z,46.53
2019-04-14T00:23:26.238Z,45.38
2019-04-14T00:25:54.674Z,45.40
2019-04-14T00:28:33.598Z,57.83
2019-04-14T00:30:59.933Z,63.52
2019-04-14T00:33:30.172Z,58.78
2019-04-14T00:36:28.403Z,56.23
2019-04-14T00:38:56.850Z,44.95
2019-04-14T00:41:40.301Z,41.10
2019-04-14T00:44:13.252Z,39.55
2019-04-14T00:46:53.774Z,43.33
2019-04-14T00:49:22.328Z,39.65
2019-04-14T00:51:50.869Z,38.42
2019-04-14T00:54:19.628Z,44.05
2019-04-14T00:56:48.101Z,42.48
2019-04-14T00:59:16.531Z,44.60
2019-04-14T01:01:45.905Z,43.63
2019-04-14T01:04:14.434Z,42.17
2019-04-14T01:06:42.902Z,39.75
2019-04-14T01:09:13.164Z,36.38
2019-04-14T01:11:42.142Z,36.83
2019-04-14T01:14:10.669Z,40.75
2019-04-14T01:17:04.781Z,37.45
2019-04-14T01:19:33.285Z,39.48
2019-04-14T01:22:01.751Z,37.80
2019-04-14T01:24:35.968Z,40.15
2019-04-14T01:27:08.352Z,39.58
2019-04-14T01:29:36.784Z,37.73
2019-04-14T01:32:06.495Z,37.85
2019-04-14T01:34:35.059Z,42.13
2019-04-14T01:37:03.526Z,39.08
2019-04-14T01:39:32.869Z,35.90
2019-04-14T01:42:05.007Z,36.25
2019-04-14T01:44:33.421Z,39.35
2019-04-14T01:47:03.016Z,38.28
2019-04-14T01:49:41.879Z,37.25
2019-04-14T01:52:15.074Z,38.85
2019-04-14T03:46:36.447Z,33.28
2019-04-14T03:51:57.624Z,26.75
2019-04-14T03:54:11.030Z,29.18
2019-04-14T03:59:48.244Z,28.65
2019-04-14T04:02:24.942Z,28.55
2019-04-14T04:04:55.584Z,30.80
2019-04-14T04:07:24.020Z,31.42
2019-04-14T04:09:54.151Z,29.25
2019-04-14T04:12:22.625Z,37.15
2019-04-14T04:14:51.099Z,37.03
2019-04-14T04:17:30.210Z,37.83
2019-04-14T04:20:17.595Z,39.78
2019-04-14T04:26:17.163Z,30.10
2019-04-14T04:31:48.430Z,38.38
2019-04-14T04:34:31.621Z,33.67
2019-04-14T04:37:08.281Z,42.10
2019-04-14T04:39:43.612Z,32.65
2019-04-14T04:42:13.510Z,30.48
2019-04-14T04:44:44.418Z,31.52
2019-04-14T04:47:12.854Z,28.27
2019-04-14T04:49:42.509Z,28.52
2019-04-14T04:52:12.992Z,29.05
2019-04-14T04:54:41.262Z,25.92
2019-04-14T04:57:09.695Z,26.05
2019-04-14T05:00:09.241Z,25.62
2019-04-14T05:02:37.812Z,26.45
2019-04-14T05:08:37.007Z,46.88
2019-04-14T05:17:55.958Z,26.90
2019-04-14T05:20:53.206Z,29.20
2019-04-14T05:23:21.735Z,29.55
2019-04-14T05:25:50.202Z,30.15
2019-04-14T05:31:29.405Z,33.15
2019-04-14T05:33:55.634Z,34.27
2019-04-14T05:36:24.082Z,31.97
2019-04-14T05:38:53.961Z,31.60
2019-04-14T05:41:33.016Z,30.27
2019-04-14T05:44:03.111Z,39.67
2019-04-14T05:46:31.757Z,44.30
2019-04-14T05:49:00.207Z,34.58
2019-04-14T05:51:28.660Z,41.95
2019-04-14T05:53:57.087Z,33.20
2019-04-14T05:56:37.521Z,36.10
2019-04-14T05:59:06.638Z,35.60
2019-04-14T06:01:36.473Z,31.42
2019-04-14T06:04:05.556Z,34.58
2019-04-14T06:06:34.018Z,32.88
2019-04-14T06:09:02.446Z,35.10
2019-04-14T06:11:30.917Z,34.40
2019-04-14T06:13:59.108Z,31.33
2019-04-14T06:16:27.588Z,32.75
2019-04-14T06:18:55.775Z,32.45
2019-04-14T06:21:49.670Z,32.95
2019-04-14T06:24:18.198Z,31.82
2019-04-14T06:26:46.642Z,32.53
2019-04-14T06:29:15.400Z,33.45
2019-04-14T06:32:09.058Z,32.55
2019-04-14T06:34:55.451Z,34.55
2019-04-14T06:37:25.551Z,36.83
2019-04-14T06:39:55.625Z,38.13
2019-04-14T06:42:26.599Z,36.00
2019-04-14T06:45:03.594Z,36.60
2019-04-14T06:47:32.618Z,38.50
2019-04-14T06:50:01.074Z,41.15
2019-04-14T06:52:29.549Z,39.48
2019-04-14T06:54:57.980Z,42.08
2019-04-14T06:57:26.445Z,41.73
2019-04-14T06:59:54.869Z,47.15
2019-04-14T07:07:37.770Z,51.98
2019-04-14T07:10:06.569Z,49.77
2019-04-14T07:12:35.076Z,47.90
2019-04-14T07:15:03.571Z,49.13
2019-04-14T07:17:32.036Z,53.85
2019-04-14T07:22:56.630Z,53.87
2019-04-14T07:25:25.070Z,51.92
2019-04-14T07:27:53.538Z,54.67
2019-04-14T07:30:35.662Z,52.60
2019-04-14T07:33:08.606Z,47.20
2019-04-14T07:36:07.618Z,51.77
2019-04-14T07:38:51.623Z,51.58
2019-04-14T07:44:20.642Z,54.55
2019-04-14T07:46:53.831Z,60.33
2019-04-14T07:49:40.109Z,57.20
2019-04-14T07:52:17.255Z,59.48
2019-04-14T07:58:27.891Z,55.43
2019-04-14T08:00:58.031Z,50.70
2019-04-14T08:03:55.577Z,56.77
2019-04-14T08:06:24.042Z,47.40
2019-04-14T08:08:52.547Z,50.92
2019-04-14T08:11:21.010Z,47.93
2019-04-14T08:13:55.252Z,45.78
2019-04-14T08:16:26.920Z,48.05
2019-04-14T08:18:55.358Z,48.58
2019-04-14T08:21:23.866Z,42.85
2019-04-14T08:23:52.311Z,48.60
2019-04-14T08:26:20.757Z,66.45
2019-04-14T08:28:49.266Z,47.70
2019-04-14T08:34:15.357Z,45.43
2019-04-14T08:36:43.855Z,41.00
2019-04-14T08:39:12.307Z,36.83
2019-04-14T08:41:42.415Z,143.87
2019-04-14T08:44:56.516Z,133.93
2019-04-14T08:47:42.817Z,151.95
2019-04-14T08:50:12.899Z,173.38
2019-04-14T08:52:58.480Z,43.38
2019-04-14T08:55:31.298Z,64.82
2019-04-14T08:58:17.432Z,40.98
2019-04-14T09:00:53.604Z,50.50
2019-04-14T09:03:41.973Z,35.73
2019-04-14T09:06:12.053Z,33.67
2019-04-14T09:14:57.363Z,35.58
2019-04-14T09:17:21.651Z,34.00
2019-04-14T09:19:50.092Z,33.90
2019-04-14T09:22:18.544Z,38.85
2019-04-14T09:24:50.029Z,32.53
2019-04-14T09:27:19.154Z,34.10
2019-04-14T09:29:52.098Z,34.58
2019-04-14T09:32:18.684Z,35.43
2019-04-14T09:34:47.136Z,34.53
2019-04-14T09:37:16.158Z,37.90
2019-04-14T09:39:46.528Z,33.67
2019-04-14T09:42:15.463Z,39.13
2019-04-14T09:44:44.366Z,33.95
2019-04-14T09:47:13.346Z,38.73
2019-04-14T09:49:46.356Z,33.80
2019-04-14T09:52:15.702Z,36.55
2019-04-14T09:54:44.806Z,34.60
2019-04-14T09:57:13.754Z,36.73
2019-04-14T09:59:42.750Z,39.27
2019-04-14T10:02:11.202Z,37.90
2019-04-14T10:04:39.678Z,34.70
2019-04-14T10:07:08.107Z,35.50
2019-04-14T10:09:36.586Z,39.75
2019-04-14T10:15:44.374Z,36.05
2019-04-14T10:18:12.658Z,31.33
2019-04-14T10:24:52.021Z,30.32
2019-04-14T10:27:20.467Z,28.85
2019-04-14T10:29:48.927Z,32.33
2019-04-14T10:32:17.386Z,30.00
2019-04-14T10:34:45.846Z,26.52
2019-04-14T10:37:14.355Z,25.82
2019-04-14T10:39:45.660Z,23.32
2019-04-14T10:42:14.073Z,25.37
2019-04-14T10:44:42.522Z,21.62
2019-04-14T10:47:10.946Z,19.37
2019-04-14T10:49:39.399Z,18.87
2019-04-14T10:52:07.840Z,17.50
2019-04-14T10:54:36.284Z,16.45
2019-04-14T10:57:04.719Z,16.23
2019-04-14T10:59:33.180Z,16.70
2019-04-14T11:02:01.609Z,14.47
2019-04-14T11:04:30.055Z,13.90
2019-04-14T11:07:00.118Z,16.20
2019-04-14T11:09:28.565Z,14.33
2019-04-14T11:11:57.167Z,13.65
2019-04-14T11:14:25.577Z,13.93
2019-04-14T11:16:54.026Z,13.80
2019-04-14T11:19:22.473Z,14.85
2019-04-14T11:21:50.894Z,22.00
2019-04-14T11:24:19.334Z,32.17
2019-04-14T11:26:47.779Z,12.23
2019-04-14T11:29:16.253Z,12.07
2019-04-14T11:31:46.331Z,9.33
2019-04-14T11:34:16.431Z,10.53
2019-04-14T11:36:46.481Z,9.25
2019-04-14T11:39:16.569Z,11.00
2019-04-14T11:41:45.008Z,9.73
2019-04-14T11:44:13.471Z,9.18
2019-04-14T11:46:41.865Z,8.45
2019-04-14T11:49:10.378Z,7.85
2019-04-14T11:51:40.846Z,7.35
2019-04-14T11:54:09.227Z,7.33
2019-04-14T11:56:37.689Z,7.30
2019-04-14T11:59:06.106Z,7.67
2019-04-14T12:01:45.100Z,7.97
2019-04-14T12:04:15.145Z,7.08
2019-04-14T12:06:45.256Z,6.83
2019-04-14T12:09:18.302Z,7.53
2019-04-14T12:11:47.409Z,8.20
2019-04-14T12:14:16.039Z,16.30
2019-04-14T12:16:44.513Z,21.60
2019-04-14T12:19:12.971Z,8.40
2019-04-14T12:21:41.415Z,8.33
2019-04-14T12:24:09.958Z,11.03
2019-04-14T12:26:38.373Z,14.00
2019-04-14T12:29:06.878Z,10.28
2019-04-14T12:31:35.382Z,9.53
2019-04-14T12:34:03.824Z,11.50
2019-04-14T12:36:32.282Z,8.75
2019-04-14T12:39:00.723Z,10.20
2019-04-14T12:41:39.973Z,9.38
2019-04-14T12:44:28.402Z,10.30
2019-04-14T12:46:58.508Z,9.88
2019-04-14T12:49:34.713Z,11.48
2019-04-14T12:52:21.555Z,11.15
2019-04-14T12:54:46.166Z,9.70
2019-04-14T12:57:16.328Z,36.00
2019-04-14T12:59:44.774Z,20.60
2019-04-14T13:02:17.590Z,15.20
2019-04-14T13:04:46.029Z,10.63
2019-04-14T13:07:14.486Z,13.95
2019-04-14T13:09:42.927Z,34.35
2019-04-14T13:12:11.396Z,14.50
2019-04-14T13:14:39.854Z,10.15
2019-04-14T13:17:08.298Z,10.10
2019-04-14T13:19:36.717Z,9.95
2019-04-14T13:22:05.165Z,8.90
2019-04-14T13:24:33.585Z,8.33
2019-04-14T13:27:02.025Z,8.45
2019-04-14T13:29:30.462Z,7.40
2019-04-14T13:31:58.929Z,8.23
2019-04-14T13:34:27.382Z,11.03
2019-04-14T13:36:55.831Z,7.95
2019-04-14T13:39:24.269Z,10.88
2019-04-14T13:41:52.713Z,7.65
2019-04-14T13:44:21.133Z,8.05
2019-04-14T13:46:56.671Z,7.65
2019-04-14T13:49:25.093Z,8.53
2019-04-14T13:51:53.538Z,8.28
2019-04-14T13:54:21.994Z,8.55
2019-04-14T13:56:53.839Z,7.90
2019-04-14T13:59:22.279Z,7.33
2019-04-14T14:01:50.738Z,8.95
2019-04-14T14:04:19.179Z,8.70
2019-04-14T14:06:47.638Z,9.95
2019-04-14T14:09:16.067Z,13.28
2019-04-14T14:11:46.173Z,10.78
2019-04-14T14:14:25.244Z,13.95
2019-04-14T14:16:55.783Z,13.60
2019-04-14T14:19:26.262Z,12.15
2019-04-14T14:21:56.551Z,12.85
2019-04-14T14:24:26.618Z,13.80
2019-04-14T14:26:57.106Z,14.28
2019-04-14T14:29:25.549Z,14.85
2019-04-14T14:31:54.670Z,15.38
2019-04-14T14:34:23.113Z,15.45
2019-04-14T14:36:51.931Z,15.30
2019-04-14T14:39:21.690Z,15.50
2019-04-14T14:41:52.201Z,16.30
2019-04-14T14:44:22.854Z,17.57
2019-04-14T14:46:52.973Z,20.72
2019-04-14T14:49:23.602Z,16.50
2019-04-14T14:51:54.630Z,18.62
2019-04-14T14:54:24.375Z,19.65
2019-04-14T14:56:52.858Z,16.97
2019-04-14T14:59:21.866Z,53.70
2019-04-14T15:01:50.805Z,21.10
2019-04-14T15:04:21.204Z,31.55
2019-04-14T15:06:49.976Z,37.17
2019-04-14T15:09:18.866Z,19.52
2019-04-14T15:11:47.346Z,19.12
2019-04-14T15:14:16.244Z,18.77
2019-04-14T15:16:45.349Z,16.85
2019-04-14T15:19:25.855Z,26.05
2019-04-14T15:21:54.337Z,19.05
2019-04-14T15:24:22.802Z,19.17
2019-04-14T15:26:51.238Z,17.65
2019-04-14T15:29:19.699Z,18.57
2019-04-14T15:31:48.128Z,15.55
2019-04-14T15:34:16.578Z,17.40
2019-04-14T15:36:45.011Z,17.67
2019-04-14T15:39:13.454Z,19.30
2019-04-14T15:41:41.885Z,15.20
2019-04-14T15:44:10.357Z,15.00
2019-04-14T15:46:38.793Z,14.80
2019-04-14T15:49:07.263Z,16.05
2019-04-14T15:51:35.683Z,13.53
2019-04-14T15:54:04.153Z,15.90
2019-04-14T15:56:50.727Z,15.38
2019-04-14T15:59:20.818Z,16.97
2019-04-14T16:01:50.896Z,17.65
2019-04-14T16:04:21.011Z,15.38
2019-04-14T16:06:51.061Z,12.73
2019-04-14T16:09:27.225Z,16.00
2019-04-14T16:12:06.484Z,12.25
2019-04-14T16:14:42.544Z,17.42
2019-04-14T16:17:28.915Z,15.38
2019-04-14T16:19:59.032Z,13.38
2019-04-14T16:22:27.481Z,13.62
2019-04-14T16:24:55.938Z,10.95
2019-04-14T16:27:35.113Z,16.52
2019-04-14T16:30:14.101Z,11.43
2019-04-14T16:32:44.175Z,12.00
2019-04-14T16:35:14.265Z,11.15
2019-04-14T16:37:42.695Z,11.73
2019-04-14T16:40:11.160Z,11.35
2019-04-14T16:42:39.598Z,12.13
2019-04-14T16:45:08.121Z,12.15
2019-04-14T16:47:37.504Z,9.83
2019-04-14T16:50:06.729Z,16.57
2019-04-14T16:52:37.270Z,14.33
2019-04-14T16:55:20.094Z,14.07
2019-04-14T16:57:50.633Z,22.32
2019-04-14T17:00:21.751Z,16.35
2019-04-14T17:02:50.393Z,23.98
2019-04-14T17:05:18.858Z,20.17
2019-04-14T17:07:47.282Z,19.77
2019-04-14T17:10:15.757Z,21.10
2019-04-14T17:12:44.200Z,21.60
2019-04-14T17:15:32.462Z,18.02
2019-04-14T17:18:11.313Z,17.55
2019-04-14T17:20:50.379Z,24.12
2019-04-14T17:23:20.461Z,22.55
2019-04-14T17:25:53.493Z,19.20
2019-04-14T17:28:24.342Z,18.75
2019-04-14T17:30:54.675Z,21.40
2019-04-14T17:33:24.751Z,20.52
2019-04-14T17:36:00.987Z,29.42
2019-04-14T17:38:37.142Z,23.02
2019-04-14T17:41:19.412Z,27.95
2019-04-14T17:43:49.431Z,21.33
2019-04-14T17:46:19.533Z,26.77
2019-04-14T17:48:49.615Z,21.12
2019-04-14T17:51:37.837Z,21.77
2019-04-14T17:54:07.928Z,21.82
2019-04-14T17:56:52.023Z,24.40
2019-04-14T17:59:38.414Z,22.40
2019-04-14T18:02:08.533Z,77.62
2019-04-14T18:04:47.623Z,31.68
2019-04-14T18:07:23.480Z,23.30
2019-04-14T18:10:02.714Z,24.15
2019-04-14T18:12:32.803Z,23.45
2019-04-14T18:15:02.924Z,26.20
2019-04-14T18:17:33.045Z,22.58
2019-04-14T18:20:03.116Z,24.92
2019-04-14T18:22:31.593Z,23.30
2019-04-14T18:25:00.048Z,23.32
2019-04-14T18:27:29.275Z,24.20
2019-04-14T18:30:02.270Z,43.17
2019-04-14T18:32:36.389Z,25.92
2019-04-14T18:35:12.878Z,25.62
2019-04-14T18:37:45.754Z,24.27
2019-04-14T18:40:20.586Z,23.95
2019-04-14T18:42:50.666Z,23.27
2019-04-14T18:45:31.635Z,26.52
2019-04-14T18:48:18.743Z,29.52
2019-04-14T18:51:05.637Z,41.63
2019-04-14T18:53:44.847Z,26.95
2019-04-14T18:56:33.656Z,25.10
2019-04-14T18:59:13.381Z,56.55
2019-04-14T19:01:43.955Z,42.30
2019-04-14T19:04:14.676Z,42.73
2019-04-14T19:06:44.638Z,29.05
2019-04-14T19:09:14.380Z,30.20
2019-04-14T19:11:47.578Z,28.38
2019-04-14T19:14:18.205Z,30.43
2019-04-14T19:17:06.475Z,32.65
2019-04-14T19:19:37.148Z,33.45
2019-04-14T19:22:09.041Z,34.73
2019-04-14T19:24:39.587Z,34.58
2019-04-14T19:27:08.655Z,32.03
2019-04-14T19:29:37.697Z,39.03
2019-04-14T19:32:07.752Z,33.63
2019-04-14T19:34:36.777Z,34.92
2019-04-14T19:37:05.783Z,36.35
2019-04-14T19:39:34.897Z,38.95
2019-04-14T19:42:04.597Z,42.08
2019-04-14T19:44:33.551Z,38.92
2019-04-14T19:47:02.472Z,41.63
2019-04-14T19:49:31.622Z,35.23
2019-04-14T19:52:00.676Z,37.93
2019-04-14T19:54:29.600Z,45.78
2019-04-14T19:57:00.016Z,40.52
2019-04-14T19:59:29.195Z,38.45
2019-04-14T20:01:58.171Z,41.92
2019-04-14T20:04:27.342Z,52.23
2019-04-14T20:06:56.311Z,96.32
2019-04-14T20:09:25.249Z,52.53
2019-04-14T20:11:54.896Z,39.18
2019-04-14T20:14:23.887Z,41.25
2019-04-14T20:16:55.727Z,37.98
2019-04-14T20:19:35.976Z,35.73
2019-04-14T20:22:06.426Z,39.60
2019-04-14T20:24:44.706Z,36.33
2019-04-14T20:27:19.916Z,42.62
2019-04-14T20:29:59.630Z,36.13
2019-04-14T20:32:32.622Z,38.95
2019-04-14T20:35:01.523Z,44.73
2019-04-14T20:37:33.366Z,42.50
2019-04-14T20:40:02.222Z,45.08
2019-04-14T20:42:31.087Z,41.48
2019-04-14T20:45:00.155Z,44.77
2019-04-14T20:47:30.370Z,42.05
2019-04-14T20:49:59.470Z,39.13
2019-04-14T20:52:30.023Z,45.05
2019-04-14T20:54:58.926Z,44.27
2019-04-14T20:57:27.906Z,42.20
2019-04-14T20:59:56.975Z,39.20
2019-04-14T21:02:30.468Z,42.27
2019-04-14T21:05:02.714Z,44.70
2019-04-14T21:07:51.420Z,42.13
2019-04-14T21:10:27.837Z,41.48
2019-04-14T21:13:04.355Z,42.25
2019-04-14T21:15:44.163Z,40.58
2019-04-14T21:18:14.708Z,38.98
2019-04-14T21:20:57.763Z,44.83
2019-04-14T21:23:28.385Z,40.33
2019-04-14T21:26:13.116Z,39.05
2019-04-14T21:28:55.649Z,43.83
2019-04-14T21:31:26.025Z,45.90
2019-04-14T21:34:05.983Z,39.13
2019-04-14T21:36:40.745Z,39.80
2019-04-14T21:39:16.878Z,45.10
2019-04-14T21:41:47.618Z,45.28
2019-04-14T21:44:18.930Z,39.80
2019-04-14T21:46:49.361Z,36.00
2019-04-14T21:49:18.159Z,41.68
2019-04-14T21:51:54.535Z,36.50
2019-04-14T21:54:24.121Z,40.67
2019-04-14T21:57:15.571Z,44.95
2019-04-14T22:00:04.242Z,43.33
2019-04-14T22:02:50.780Z,45.43
2019-04-14T22:05:37.537Z,43.55
2019-04-14T22:08:13.813Z,48.83
2019-04-14T22:10:47.311Z,46.30
2019-04-14T22:13:16.447Z,44.65
2019-04-14T22:15:46.641Z,44.67
2019-04-14T22:18:15.827Z,45.95
2019-04-14T22:20:44.774Z,43.60
2019-04-14T22:23:13.531Z,44.10
2019-04-14T22:25:42.358Z,40.17
2019-04-14T22:28:11.085Z,47.73
2019-04-14T22:30:39.978Z,38.53
2019-04-14T22:33:09.769Z,48.25
2019-04-14T22:35:39.096Z,41.33
2019-04-14T22:38:08.090Z,45.28
2019-04-14T22:40:36.696Z,51.20
2019-04-14T22:43:05.568Z,39.67
2019-04-14T22:45:34.346Z,43.35
2019-04-14T22:48:03.048Z,35.40
2019-04-14T22:50:32.099Z,44.38
2019-04-14T22:53:01.070Z,40.48
2019-04-14T22:55:29.866Z,35.17
2019-04-14T22:57:58.773Z,38.00
2019-04-14T23:00:41.912Z,39.60
2019-04-14T23:03:21.326Z,33.83
2019-04-14T23:06:00.770Z,44.77
2019-04-14T23:08:33.822Z,34.00
2019-04-14T23:11:06.698Z,38.45
2019-04-14T23:13:36.767Z,35.43
2019-04-14T23:16:15.773Z,31.52
2019-04-14T23:18:48.847Z,32.83
2019-04-14T23:21:34.199Z,34.38
2019-04-14T23:24:06.949Z,30.75
2019-04-14T23:26:35.391Z,36.70
2019-04-14T23:29:03.828Z,31.93
2019-04-14T23:31:32.287Z,34.13
2019-04-14T23:34:00.729Z,30.40
2019-04-14T23:36:29.181Z,31.95
2019-04-14T23:38:57.611Z,33.83
2019-04-14T23:41:26.033Z,33.92
2019-04-14T23:43:54.573Z,37.23
2019-04-14T23:46:23.105Z,31.05
2019-04-14T23:48:51.560Z,30.02
2019-04-14T23:51:20.018Z,34.35
2019-04-14T23:53:48.482Z,35.03
2019-04-14T23:56:16.905Z,34.83
2019-04-14T23:58:45.381Z,34.00
